Time;durP1;ratioP1;P1;durP2;ratioP2;P2;SDS_P1;SDS_P2;PMS_P1;PMS_P2;Temp;Humidity;BMP_temperature;BMP_pressure;BME280_temperature;BME280_humidity;BME280_pressure;Samples;Min_cycle;Max_cycle;Signal;HPM_P1;HPM_P2
2022/04/22 00:02:24;;;;;;;7.32;1.75;;;;;;;;;;5092233;28;20020;-75
2022/04/22 00:04:52;;;;;;;6.20;1.92;;;;;;;;;;5091900;28;20032;-74
2022/04/22 00:07:19;;;;;;;7.38;2.63;;;;;;;;;;5093377;28;20035;-74
2022/04/22 00:09:46;;;;;;;12.73;2.60;;;;;;;;;;5093241;28;20020;-74
2022/04/22 00:12:13;;;;;;;8.55;2.40;;;;;;;;;;5093311;28;20028;-74
2022/04/22 00:14:40;;;;;;;10.93;2.63;;;;;;;;;;5093098;28;20024;-74
2022/04/22 00:17:07;;;;;;;9.38;2.00;;;;;;;;;;5091934;28;20048;-74
2022/04/22 00:19:34;;;;;;;9.13;2.00;;;;;;;;;;5093170;28;20032;-73
2022/04/22 00:22:02;;;;;;;6.85;1.75;;;;;;;;;;5093204;28;20107;-74
2022/04/22 00:24:29;;;;;;;9.20;1.83;;;;;;;;;;5093063;28;20027;-73
2022/04/22 00:26:56;;;;;;;8.25;1.63;;;;;;;;;;5093131;28;20020;-73
2022/04/22 00:29:23;;;;;;;7.85;2.13;;;;;;;;;;5091515;28;20549;-73
2022/04/22 00:31:50;;;;;;;8.38;2.10;;;;;;;;;;5092987;28;20532;-72
2022/04/22 00:34:17;;;;;;;8.00;1.67;;;;;;;;;;5092934;28;20036;-72
2022/04/22 00:36:44;;;;;;;7.55;1.55;;;;;;;;;;5093019;28;20020;-72
2022/04/22 00:39:12;;;;;;;7.78;1.55;;;;;;;;;;5092876;28;20031;-73
2022/04/22 00:41:39;;;;;;;8.90;1.83;;;;;;;;;;5091580;28;20028;-72
2022/04/22 00:44:06;;;;;;;10.20;2.72;;;;;;;;;;5092989;28;20023;-73
2022/04/22 00:46:33;;;;;;;6.70;1.90;;;;;;;;;;5092901;28;20020;-73
2022/04/22 00:49:00;;;;;;;7.03;1.50;;;;;;;;;;5092718;28;20511;-73
2022/04/22 00:51:27;;;;;;;7.22;2.05;;;;;;;;;;5091374;28;20031;-73
2022/04/22 00:53:54;;;;;;;6.38;1.30;;;;;;;;;;5092853;28;20383;-73
2022/04/22 00:56:22;;;;;;;6.75;1.67;;;;;;;;;;5092219;28;20077;-72
2022/04/22 00:58:50;;;;;;;7.00;1.45;;;;;;;;;;5091386;28;20494;-73
2022/04/22 01:01:17;;;;;;;9.02;1.67;;;;;;;;;;5092582;28;20020;-73
2022/04/22 01:12:09;;;;;;;4.93;1.50;;;;;;;;;;5092546;28;20523;-73
2022/04/22 01:14:37;;;;;;;5.50;1.20;;;;;;;;;;5092630;28;20524;-73
2022/04/22 01:17:05;;;;;;;5.68;1.27;;;;;;;;;;5092530;28;20162;-73
2022/04/22 01:19:32;;;;;;;8.05;2.05;;;;;;;;;;5091047;28;20028;-73
2022/04/22 01:21:59;;;;;;;4.90;1.63;;;;;;;;;;5091013;28;20028;-73
2022/04/22 01:24:27;;;;;;;4.90;1.45;;;;;;;;;;5092275;28;20024;-73
2022/04/22 01:27:00;;;;;;;6.13;1.15;;;;;;;;;;5092267;28;20028;-73
2022/04/22 01:29:28;;;;;;;5.07;0.93;;;;;;;;;;5091213;28;20477;-74
2022/04/22 01:31:55;;;;;;;6.00;1.27;;;;;;;;;;5092248;28;20016;-74
2022/04/22 01:34:22;;;;;;;5.63;1.13;;;;;;;;;;5092219;28;20024;-73
2022/04/22 01:36:49;;;;;;;7.50;1.42;;;;;;;;;;5092134;28;20056;-73
2022/04/22 01:39:16;;;;;;;4.53;1.48;;;;;;;;;;5092268;28;20016;-74
2022/04/22 01:41:44;;;;;;;4.90;1.20;;;;;;;;;;5090776;28;20411;-73
2022/04/22 01:44:11;;;;;;;5.70;0.90;;;;;;;;;;5092165;28;20465;-73
2022/04/22 01:46:38;;;;;;;5.75;1.25;;;;;;;;;;5092323;28;20431;-73
2022/04/22 01:49:05;;;;;;;5.90;1.38;;;;;;;;;;5090646;28;20036;-73
2022/04/22 01:51:32;;;;;;;6.25;1.63;;;;;;;;;;5092211;28;20090;-75
2022/04/22 01:54:00;;;;;;;5.60;1.27;;;;;;;;;;5092321;28;20023;-74
2022/04/22 01:56:27;;;;;;;3.70;0.88;;;;;;;;;;5092093;28;20043;-75
2022/04/22 01:58:54;;;;;;;6.95;1.10;;;;;;;;;;5090975;28;20016;-75
2022/04/22 02:01:21;;;;;;;6.75;1.73;;;;;;;;;;5092139;28;20391;-75
2022/04/22 02:03:48;;;;;;;6.97;1.08;;;;;;;;;;5092047;28;20094;-75
2022/04/22 02:06:15;;;;;;;4.18;0.80;;;;;;;;;;5091991;28;20374;-75
2022/04/22 02:08:43;;;;;;;8.18;1.30;;;;;;;;;;5091217;28;20442;-76
2022/04/22 02:11:10;;;;;;;4.75;0.90;;;;;;;;;;5094170;28;20024;-76
2022/04/22 02:13:37;;;;;;;5.40;0.75;;;;;;;;;;5095416;28;20031;-76
2022/04/22 02:16:05;;;;;;;5.47;1.00;;;;;;;;;;5095507;28;20066;-76
2022/04/22 02:18:36;;;;;;;5.97;0.80;;;;;;;;;;5093980;28;20026;-76
2022/04/22 02:21:04;;;;;;;3.85;0.80;;;;;;;;;;5095826;28;20369;-76
2022/04/22 02:23:31;;;;;;;6.40;1.17;;;;;;;;;;5095244;28;20024;-75
2022/04/22 02:25:59;;;;;;;5.82;1.08;;;;;;;;;;5095317;28;20016;-75
2022/04/22 02:28:32;;;;;;;6.18;1.48;;;;;;;;;;5095416;28;20477;-76
2022/04/22 02:31:06;;;;;;;7.28;1.92;;;;;;;;;;5095170;28;20457;-76
2022/04/22 02:33:34;;;;;;;7.80;1.63;;;;;;;;;;5095135;28;20095;-76
2022/04/22 02:36:01;;;;;;;6.82;1.50;;;;;;;;;;5095688;28;20069;-79
2022/04/22 02:38:29;;;;;;;7.13;1.15;;;;;;;;;;5094368;28;20024;-82
2022/04/22 02:46:30;;;;;;;4.28;1.10;;;;;;;;;;5096283;28;20100;-80
2022/04/22 02:48:58;;;;;;;4.30;1.27;;;;;;;;;;5095964;28;20044;-80
2022/04/22 02:51:25;;;;;;;6.25;1.65;;;;;;;;;;5093906;28;20063;-80
2022/04/22 02:53:53;;;;;;;12.50;2.90;;;;;;;;;;5095385;28;20113;-80
2022/04/22 02:56:20;;;;;;;12.40;3.10;;;;;;;;;;5094700;28;20020;-81
2022/04/22 02:58:48;;;;;;;12.43;2.40;;;;;;;;;;5094641;28;20095;-80
2022/04/22 03:01:16;;;;;;;10.68;1.55;;;;;;;;;;5096591;28;20070;-79
2022/04/22 03:03:43;;;;;;;8.73;1.60;;;;;;;;;;5095080;28;20024;-79
2022/04/22 03:06:11;;;;;;;4.68;1.08;;;;;;;;;;5095578;28;20032;-80
2022/04/22 03:08:38;;;;;;;5.82;1.67;;;;;;;;;;5096122;28;20445;-79
2022/04/22 03:11:05;;;;;;;5.32;1.10;;;;;;;;;;5093855;28;20028;-78
2022/04/22 03:13:33;;;;;;;8.88;1.63;;;;;;;;;;5093545;28;20400;-78
2022/04/22 03:16:00;;;;;;;5.25;1.10;;;;;;;;;;5093667;28;20115;-80
2022/04/22 03:18:28;;;;;;;5.30;1.10;;;;;;;;;;5094840;28;20468;-80
2022/04/22 03:20:56;;;;;;;7.80;1.08;;;;;;;;;;5095565;28;20020;-80
2022/04/22 03:23:23;;;;;;;7.15;0.95;;;;;;;;;;5094474;28;20035;-79
2022/04/22 03:25:50;;;;;;;5.72;0.90;;;;;;;;;;5093899;28;20166;-80
2022/04/22 03:28:17;;;;;;;5.07;1.13;;;;;;;;;;5095261;28;20476;-80
2022/04/22 03:30:44;;;;;;;5.93;1.00;;;;;;;;;;5093332;28;20203;-80
2022/04/22 03:33:12;;;;;;;5.20;1.08;;;;;;;;;;5095406;28;20024;-82
2022/04/22 03:35:39;;;;;;;6.25;1.25;;;;;;;;;;5096600;28;20411;-82
2022/04/22 03:38:07;;;;;;;4.97;1.13;;;;;;;;;;5094853;28;20016;-80
2022/04/22 03:40:34;;;;;;;6.97;1.10;;;;;;;;;;5092803;28;20085;-79
2022/04/22 03:43:01;;;;;;;4.07;1.50;;;;;;;;;;5093411;28;20028;-80
2022/04/22 03:45:29;;;;;;;5.75;1.00;;;;;;;;;;5093780;28;20481;-79
2022/04/22 03:47:59;;;;;;;3.28;0.90;;;;;;;;;;5095258;28;20044;-79
2022/04/22 03:50:27;;;;;;;6.35;1.00;;;;;;;;;;5093001;28;20035;-79
2022/04/22 03:52:54;;;;;;;3.38;0.80;;;;;;;;;;5094133;28;20043;-81
2022/04/22 03:55:21;;;;;;;5.28;0.95;;;;;;;;;;5093813;28;20012;-79
2022/04/22 04:00:33;;;;;;;6.10;0.82;;;;;;;;;;5093966;28;20027;-80
2022/04/22 04:03:01;;;;;;;5.78;0.88;;;;;;;;;;5092907;28;20020;-78
2022/04/22 04:05:30;;;;;;;7.20;1.88;;;;;;;;;;5094868;28;20024;-80
2022/04/22 04:07:57;;;;;;;5.20;1.25;;;;;;;;;;5092910;28;20028;-79
2022/04/22 04:15:58;;;;;;;5.80;1.13;;;;;;;;;;5095847;28;20066;-79
2022/04/22 04:18:28;;;;;;;4.22;0.98;;;;;;;;;;5094643;28;20016;-80
2022/04/22 04:23:41;;;;;;;3.63;0.90;;;;;;;;;;5095405;28;20034;-80
2022/04/22 04:26:08;;;;;;;7.47;1.20;;;;;;;;;;5094563;28;20066;-79
2022/04/22 04:28:36;;;;;;;3.95;0.93;;;;;;;;;;5094051;28;20392;-80
2022/04/22 04:31:04;;;;;;;7.78;1.55;;;;;;;;;;5093005;28;20544;-80
2022/04/22 04:33:31;;;;;;;5.38;1.50;;;;;;;;;;5092870;28;20035;-80
2022/04/22 04:35:58;;;;;;;7.05;1.23;;;;;;;;;;5092778;28;20052;-80
2022/04/22 04:38:27;;;;;;;5.90;1.98;;;;;;;;;;5094172;28;20013;-80
2022/04/22 04:40:55;;;;;;;6.63;2.72;;;;;;;;;;5091910;28;20040;-80
2022/04/22 04:43:22;;;;;;;6.93;2.47;;;;;;;;;;5092154;28;20078;-79
2022/04/22 04:45:50;;;;;;;6.53;2.10;;;;;;;;;;5092305;28;20024;-80
2022/04/22 04:48:18;;;;;;;6.25;2.58;;;;;;;;;;5093613;28;20488;-81
2022/04/22 04:50:51;;;;;;;8.20;2.25;;;;;;;;;;5093110;28;20396;-79
2022/04/22 04:53:23;;;;;;;6.00;1.65;;;;;;;;;;5075703;28;20036;-78
2022/04/22 04:55:52;;;;;;;8.15;2.25;;;;;;;;;;5093325;28;20565;-79
2022/04/22 04:58:22;;;;;;;9.13;2.40;;;;;;;;;;5092806;28;20518;-78
2022/04/22 05:00:49;;;;;;;6.55;1.90;;;;;;;;;;5093808;28;20020;-79
2022/04/22 05:03:17;;;;;;;9.15;2.00;;;;;;;;;;5093940;28;20031;-79
2022/04/22 05:05:44;;;;;;;8.77;2.22;;;;;;;;;;5093534;28;20027;-79
2022/04/22 05:08:12;;;;;;;8.25;1.20;;;;;;;;;;5092867;28;20384;-80
2022/04/22 05:10:39;;;;;;;6.07;1.30;;;;;;;;;;5093015;28;20032;-80
2022/04/22 05:13:06;;;;;;;5.75;1.20;;;;;;;;;;5093238;28;20065;-79
2022/04/22 05:15:35;;;;;;;7.03;1.20;;;;;;;;;;5091910;28;20016;-78
2022/04/22 05:18:02;;;;;;;5.22;1.38;;;;;;;;;;5092018;28;20388;-79
2022/04/22 05:20:32;;;;;;;5.47;1.35;;;;;;;;;;5092498;28;20028;-78
2022/04/22 05:22:59;;;;;;;5.28;1.42;;;;;;;;;;5093210;28;20047;-79
2022/04/22 05:25:26;;;;;;;6.60;1.20;;;;;;;;;;5091829;28;20034;-78
2022/04/22 05:27:53;;;;;;;3.97;0.90;;;;;;;;;;5093353;28;20502;-78
2022/04/22 05:33:07;;;;;;;2.45;0.70;;;;;;;;;;5093057;28;20122;-76
2022/04/22 05:35:34;;;;;;;3.05;0.90;;;;;;;;;;5091879;28;20026;-77
2022/04/22 05:38:03;;;;;;;4.00;0.90;;;;;;;;;;5090834;28;20024;-77
2022/04/22 05:40:31;;;;;;;4.32;1.13;;;;;;;;;;5092241;28;20089;-76
2022/04/22 05:42:59;;;;;;;3.33;0.70;;;;;;;;;;5092259;28;20500;-74
2022/04/22 05:45:27;;;;;;;4.05;0.73;;;;;;;;;;5094822;28;20373;-75
2022/04/22 05:47:56;;;;;;;5.07;0.73;;;;;;;;;;5094507;28;20527;-76
2022/04/22 05:50:23;;;;;;;2.20;0.77;;;;;;;;;;5096060;28;20040;-75
2022/04/22 05:52:52;;;;;;;3.20;0.60;;;;;;;;;;5095826;28;20028;-76
2022/04/22 05:55:20;;;;;;;3.10;0.75;;;;;;;;;;5095896;28;20013;-75
2022/04/22 05:57:47;;;;;;;3.15;0.70;;;;;;;;;;5095656;28;20021;-76
2022/04/22 06:00:16;;;;;;;3.05;0.63;;;;;;;;;;5094506;28;20027;-75
2022/04/22 06:02:43;;;;;;;3.72;0.57;;;;;;;;;;5095725;28;20020;-75
2022/04/22 06:05:11;;;;;;;2.60;0.47;;;;;;;;;;5095758;28;20046;-74
2022/04/22 06:07:39;;;;;;;3.53;0.50;;;;;;;;;;5095687;28;20035;-75
2022/04/22 06:12:52;;;;;;;3.08;0.88;;;;;;;;;;5095715;28;20097;-75
2022/04/22 06:15:20;;;;;;;2.45;0.85;;;;;;;;;;5094212;28;20035;-74
2022/04/22 06:17:47;;;;;;;4.95;0.93;;;;;;;;;;5094286;28;20481;-75
2022/04/22 06:20:15;;;;;;;2.55;0.80;;;;;;;;;;5095419;28;20077;-76
2022/04/22 06:22:43;;;;;;;6.65;0.98;;;;;;;;;;5095332;28;20028;-75
2022/04/22 06:25:10;;;;;;;3.60;0.63;;;;;;;;;;5095244;28;20059;-75
2022/04/22 06:27:39;;;;;;;2.75;0.73;;;;;;;;;;5095300;28;20504;-77
2022/04/22 06:30:10;;;;;;;4.75;1.10;;;;;;;;;;5095207;28;20047;-76
2022/04/22 06:32:39;;;;;;;5.18;1.08;;;;;;;;;;5095301;28;20016;-76
2022/04/22 06:35:07;;;;;;;2.47;0.80;;;;;;;;;;5095216;28;20066;-75
2022/04/22 06:37:38;;;;;;;3.55;0.98;;;;;;;;;;5095154;28;20024;-75
2022/04/22 06:45:46;;;;;;;4.05;1.45;;;;;;;;;;5095382;28;20400;-75
2022/04/22 06:48:21;;;;;;;5.40;1.20;;;;;;;;;;5094827;28;20055;-74
2022/04/22 06:50:49;;;;;;;4.30;0.77;;;;;;;;;;5094695;28;20101;-75
2022/04/22 06:53:17;;;;;;;5.90;1.17;;;;;;;;;;5094750;28;20020;-74
2022/04/22 06:55:45;;;;;;;5.60;1.27;;;;;;;;;;5093973;28;20074;-75
2022/04/22 06:58:13;;;;;;;4.43;0.80;;;;;;;;;;5094762;28;20023;-75
2022/04/22 07:00:41;;;;;;;5.78;0.98;;;;;;;;;;5093355;28;20071;-75
2022/04/22 07:03:09;;;;;;;2.78;0.70;;;;;;;;;;5094610;28;20507;-75
2022/04/22 07:05:36;;;;;;;3.42;1.00;;;;;;;;;;5094487;28;20401;-74
2022/04/22 07:08:05;;;;;;;4.43;0.90;;;;;;;;;;5094677;28;20050;-75
2022/04/22 07:10:32;;;;;;;4.65;0.80;;;;;;;;;;5093084;28;20024;-75
2022/04/22 07:13:00;;;;;;;3.58;0.77;;;;;;;;;;5094548;28;20012;-75
2022/04/22 07:15:27;;;;;;;3.38;0.73;;;;;;;;;;5094447;28;20429;-75
2022/04/22 07:17:56;;;;;;;6.47;1.23;;;;;;;;;;5094555;28;20016;-75
2022/04/22 07:20:23;;;;;;;3.38;0.85;;;;;;;;;;5092991;28;20400;-74
2022/04/22 07:22:52;;;;;;;3.78;0.77;;;;;;;;;;5094301;28;20020;-75
2022/04/22 07:25:20;;;;;;;3.92;0.77;;;;;;;;;;5094172;28;20016;-75
2022/04/22 07:27:47;;;;;;;4.13;0.70;;;;;;;;;;5094264;28;20127;-74
2022/04/22 07:30:16;;;;;;;2.70;0.93;;;;;;;;;;5094051;28;20035;-75
2022/04/22 07:32:47;;;;;;;3.25;0.50;;;;;;;;;;5094117;28;20020;-74
2022/04/22 07:35:15;;;;;;;3.08;0.60;;;;;;;;;;5093026;28;20133;-74
2022/04/22 07:37:43;;;;;;;5.55;0.95;;;;;;;;;;5092719;28;20023;-74
2022/04/22 07:40:11;;;;;;;5.38;1.30;;;;;;;;;;5092633;28;20028;-74
2022/04/22 07:42:38;;;;;;;5.95;1.30;;;;;;;;;;5092605;28;20061;-74
2022/04/22 07:47:51;;;;;;;4.47;1.90;;;;;;;;;;5093792;28;20047;-75
2022/04/22 07:50:19;;;;;;;6.18;2.42;;;;;;;;;;5092337;28;20032;-78
2022/04/22 07:52:47;;;;;;;8.18;2.20;;;;;;;;;;5093728;28;20016;-76
2022/04/22 07:55:14;;;;;;;7.78;2.10;;;;;;;;;;5093645;28;20024;-75
2022/04/22 07:57:42;;;;;;;6.50;2.10;;;;;;;;;;5093566;28;20389;-75
2022/04/22 08:00:13;;;;;;;5.43;2.00;;;;;;;;;;5092165;28;20024;-77
2022/04/22 08:02:41;;;;;;;5.22;1.83;;;;;;;;;;5093898;28;20077;-76
2022/04/22 08:05:10;;;;;;;5.72;1.83;;;;;;;;;;5092816;28;20024;-78
2022/04/22 08:07:37;;;;;;;3.67;1.90;;;;;;;;;;5093041;28;20024;-77
2022/04/22 08:10:04;;;;;;;6.75;1.52;;;;;;;;;;5091941;28;20451;-77
2022/04/22 08:12:32;;;;;;;7.07;1.75;;;;;;;;;;5093844;28;20034;-78
2022/04/22 08:14:59;;;;;;;4.05;1.08;;;;;;;;;;5092946;28;20423;-79
2022/04/22 08:17:26;;;;;;;3.53;1.13;;;;;;;;;;5093604;28;20028;-79
2022/04/22 08:19:53;;;;;;;3.50;0.80;;;;;;;;;;5093873;28;20020;-78
2022/04/22 08:22:20;;;;;;;2.03;1.00;;;;;;;;;;5093648;28;20024;-77
2022/04/22 08:24:48;;;;;;;3.95;0.98;;;;;;;;;;5093823;28;20024;-77
2022/04/22 08:27:15;;;;;;;6.15;1.27;;;;;;;;;;5092910;28;20043;-78
2022/04/22 08:29:42;;;;;;;5.70;1.05;;;;;;;;;;5093001;28;20031;-78
2022/04/22 08:32:10;;;;;;;4.03;1.30;;;;;;;;;;5093188;28;20054;-79
2022/04/22 08:34:37;;;;;;;5.40;1.20;;;;;;;;;;5094340;28;20024;-79
2022/04/22 08:37:04;;;;;;;6.13;1.30;;;;;;;;;;5094005;28;20161;-79
2022/04/22 08:39:31;;;;;;;4.70;1.13;;;;;;;;;;5094832;28;20048;-79
2022/04/22 08:42:01;;;;;;;3.08;0.93;;;;;;;;;;5094789;28;20518;-79
2022/04/22 08:44:31;;;;;;;5.05;1.70;;;;;;;;;;5093024;28;20484;-80
2022/04/22 08:49:59;;;;;;;4.28;1.50;;;;;;;;;;5092925;28;20062;-81
2022/04/22 08:52:34;;;;;;;7.05;1.80;;;;;;;;;;5092923;28;20027;-79
2022/04/22 08:55:03;;;;;;;5.13;1.10;;;;;;;;;;5091687;28;20056;-80
2022/04/22 08:57:30;;;;;;;9.20;1.90;;;;;;;;;;5092053;28;20016;-80
2022/04/22 09:00:01;;;;;;;6.35;1.65;;;;;;;;;;5091380;28;20442;-80
2022/04/22 09:02:28;;;;;;;;;;;;;;;;;;5093446;28;20020;-81
2022/04/22 09:04:56;;;;;;;6.03;1.40;;;;;;;;;;5091764;28;19927;-79
2022/04/22 09:07:26;;;;;;;6.03;0.98;;;;;;;;;;5091598;28;20024;-82
2022/04/22 09:09:54;;;;;;;7.75;1.48;;;;;;;;;;5091806;28;20422;-82
2022/04/22 09:12:22;;;;;;;5.03;1.33;;;;;;;;;;5091768;28;20025;-81
2022/04/22 09:14:56;;;;;;;8.93;1.48;;;;;;;;;;5092793;28;20557;-82
2022/04/22 09:17:25;;;;;;;5.68;1.30;;;;;;;;;;5093150;28;20108;-81
2022/04/22 09:19:53;;;;;;;6.18;1.38;;;;;;;;;;5097258;28;20452;-81
2022/04/22 09:22:24;;;;;;;5.90;1.30;;;;;;;;;;5096892;28;20081;-81
2022/04/22 09:24:52;;;;;;;6.25;1.10;;;;;;;;;;5096967;28;20028;-80
2022/04/22 09:27:20;;;;;;;4.15;0.90;;;;;;;;;;5096509;28;20546;-81
2022/04/22 09:29:54;;;;;;;5.45;1.23;;;;;;;;;;5095014;28;20034;-80
2022/04/22 09:32:22;;;;;;;5.68;1.65;;;;;;;;;;5096530;28;20392;-81
2022/04/22 09:34:50;;;;;;;8.32;2.13;;;;;;;;;;5095019;28;20077;-77
2022/04/22 09:42:49;;;;;;;7.45;2.22;;;;;;;;;;5097144;28;20442;-79
2022/04/22 09:45:17;;;;;;;8.13;1.75;;;;;;;;;;5096431;28;20024;-79
2022/04/22 09:47:44;;;;;;;7.22;1.67;;;;;;;;;;5095280;28;20492;-80
2022/04/22 09:50:13;;;;;;;5.70;1.40;;;;;;;;;;5095486;28;20032;-81
2022/04/22 09:52:46;;;;;;;11.93;2.75;;;;;;;;;;5094778;28;20016;-80
2022/04/22 09:55:16;;;;;;;9.48;3.15;;;;;;;;;;5096276;28;20024;-79
2022/04/22 09:57:52;;;;;;;6.07;2.50;;;;;;;;;;5096294;28;20442;-78
2022/04/22 10:00:29;;;;;;;8.20;2.90;;;;;;;;;;5096467;28;20016;-80
2022/04/22 10:02:56;;;;;;;7.15;3.22;;;;;;;;;;5094533;28;20020;-80
2022/04/22 10:05:33;;;;;;;8.63;3.17;;;;;;;;;;5094261;28;20028;-80
2022/04/22 10:08:03;;;;;;;10.25;3.45;;;;;;;;;;5096074;28;20079;-80
2022/04/22 10:10:32;;;;;;;9.38;3.33;;;;;;;;;;5095892;28;20425;-80
2022/04/22 10:13:01;;;;;;;10.63;4.18;;;;;;;;;;5095821;28;20031;-81
2022/04/22 10:15:30;;;;;;;8.98;4.38;;;;;;;;;;5095558;28;20380;-77
2022/04/22 10:17:57;;;;;;;12.70;5.00;;;;;;;;;;5095554;28;20527;-76
2022/04/22 10:20:25;;;;;;;8.43;3.83;;;;;;;;;;5095421;28;20024;-76
2022/04/22 10:22:52;;;;;;;10.75;3.38;;;;;;;;;;5095500;28;20020;-77
2022/04/22 10:25:20;;;;;;;11.98;3.95;;;;;;;;;;5094017;28;20496;-77
2022/04/22 10:27:47;;;;;;;9.35;4.20;;;;;;;;;;5095510;28;20024;-77
2022/04/22 10:30:15;;;;;;;8.52;3.63;;;;;;;;;;5094091;28;20111;-77
2022/04/22 10:32:45;;;;;;;8.57;4.00;;;;;;;;;;5095227;28;20411;-77
2022/04/22 10:35:14;;;;;;;11.02;4.88;;;;;;;;;;5095274;28;20024;-76
2022/04/22 10:37:45;;;;;;;9.38;3.45;;;;;;;;;;5093826;28;20282;-76
2022/04/22 10:40:26;;;;;;;9.23;3.30;;;;;;;;;;5093839;28;20034;-76
2022/04/22 10:42:55;;;;;;;9.80;3.28;;;;;;;;;;5095136;28;20024;-76
2022/04/22 10:48:30;;;;;;;4.47;1.88;;;;;;;;;;5094822;28;20075;-76
2022/04/22 10:51:04;;;;;;;6.47;1.98;;;;;;;;;;5093531;28;20549;-76
2022/04/22 10:53:37;;;;;;;7.15;2.40;;;;;;;;;;5094857;28;20028;-76
2022/04/22 10:56:23;;;;;;;7.43;2.03;;;;;;;;;;5095007;28;20027;-76
2022/04/22 10:59:10;;;;;;;6.72;2.67;;;;;;;;;;5094783;28;20020;-76
2022/04/22 11:01:40;;;;;;;7.53;1.67;;;;;;;;;;5093218;28;20055;-73
2022/04/22 11:04:18;;;;;;;7.80;2.40;;;;;;;;;;5094565;28;20069;-77
2022/04/22 11:06:45;;;;;;;6.25;1.80;;;;;;;;;;5094513;28;20027;-73
2022/04/22 11:09:24;;;;;;;8.85;2.38;;;;;;;;;;5093213;28;20044;-76
2022/04/22 11:11:52;;;;;;;7.28;2.40;;;;;;;;;;5094803;28;20028;-76
2022/04/22 11:14:20;;;;;;;6.82;2.35;;;;;;;;;;5094450;28;20040;-74
2022/04/22 11:16:47;;;;;;;8.73;3.22;;;;;;;;;;5094423;28;20384;-74
2022/04/22 11:19:20;;;;;;;7.75;3.22;;;;;;;;;;5094278;28;20023;-76
2022/04/22 11:21:52;;;;;;;8.57;3.35;;;;;;;;;;5092994;28;20016;-74
2022/04/22 11:24:19;;;;;;;9.20;3.30;;;;;;;;;;5092932;28;20020;-76
2022/04/22 11:26:46;;;;;;;4.97;2.50;;;;;;;;;;5092901;28;20485;-74
2022/04/22 11:29:14;;;;;;;6.60;2.15;;;;;;;;;;5092872;28;20023;-74
2022/04/22 11:31:45;;;;;;;7.43;2.25;;;;;;;;;;5094029;28;20028;-75
2022/04/22 11:34:18;;;;;;;5.53;2.28;;;;;;;;;;5094088;28;20016;-77
2022/04/22 11:36:46;;;;;;;4.75;1.95;;;;;;;;;;5092735;28;20031;-75
2022/04/22 11:39:17;;;;;;;7.90;2.17;;;;;;;;;;5092662;28;20425;-75
2022/04/22 11:41:58;;;;;;;6.97;2.25;;;;;;;;;;5092454;28;20436;-75
2022/04/22 11:44:25;;;;;;;;;;;;;;;;;;5092958;28;20031;-76
2022/04/22 11:46:52;;;;;;;8.50;2.50;;;;;;;;;;5093836;28;19952;-75
2022/04/22 11:49:23;;;;;;;6.03;2.25;;;;;;;;;;5092111;28;20127;-75
2022/04/22 11:51:54;;;;;;;6.47;2.60;;;;;;;;;;5093768;28;20028;-75
2022/04/22 11:54:27;;;;;;;6.80;2.22;;;;;;;;;;5093685;28;20020;-76
2022/04/22 11:56:54;;;;;;;5.40;1.52;;;;;;;;;;5093710;28;20484;-76
2022/04/22 11:59:25;;;;;;;6.55;1.80;;;;;;;;;;5092191;28;20032;-75
2022/04/22 12:10:12;;;;;;;6.30;2.10;;;;;;;;;;5093560;28;20071;-76
2022/04/22 12:12:49;;;;;;;6.43;2.53;;;;;;;;;;5092103;28;20020;-75
2022/04/22 12:15:19;;;;;;;8.20;3.05;;;;;;;;;;5093333;28;20027;-75
2022/04/22 12:17:47;;;;;;;6.18;2.60;;;;;;;;;;5091999;28;20055;-75
2022/04/22 12:20:14;;;;;;;8.00;2.80;;;;;;;;;;5091865;28;20040;-76
2022/04/22 12:22:42;;;;;;;6.30;1.90;;;;;;;;;;5093157;28;20024;-76
2022/04/22 12:25:16;;;;;;;4.88;2.22;;;;;;;;;;5093125;28;20016;-75
2022/04/22 12:27:44;;;;;;;5.20;1.60;;;;;;;;;;5091643;28;20406;-76
2022/04/22 12:30:12;;;;;;;7.72;1.90;;;;;;;;;;5092968;28;20484;-75
2022/04/22 12:32:41;;;;;;;5.68;1.70;;;;;;;;;;5091713;28;20024;-75
2022/04/22 12:35:12;;;;;;;4.85;1.60;;;;;;;;;;5092940;28;20016;-76
2022/04/22 12:37:59;;;;;;;6.68;2.00;;;;;;;;;;5091541;28;20020;-75
2022/04/22 12:40:26;;;;;;;5.82;2.10;;;;;;;;;;5091290;28;20165;-76
2022/04/22 12:42:54;;;;;;;3.58;2.30;;;;;;;;;;5091482;28;20051;-75
2022/04/22 12:53:47;;;;;;;5.82;4.07;;;;;;;;;;5092341;28;20070;-75
2022/04/22 12:56:14;;;;;;;5.28;4.15;;;;;;;;;;5092651;28;20020;-75
2022/04/22 12:58:55;;;;;;;9.27;4.45;;;;;;;;;;5092610;28;20020;-75
2022/04/22 13:01:26;;;;;;;7.95;4.38;;;;;;;;;;5092570;28;20047;-75
2022/04/22 13:03:53;;;;;;;8.20;4.97;;;;;;;;;;5091222;28;20048;-75
2022/04/22 13:06:38;;;;;;;8.07;4.90;;;;;;;;;;5091016;28;20028;-75
2022/04/22 13:09:06;;;;;;;9.93;6.10;;;;;;;;;;5091003;28;20028;-75
2022/04/22 13:11:34;;;;;;;8.40;5.07;;;;;;;;;;5090984;28;20028;-75
2022/04/22 13:14:01;;;;;;;6.50;4.40;;;;;;;;;;5091062;28;20032;-75
2022/04/22 13:16:29;;;;;;;8.93;4.85;;;;;;;;;;5091003;28;20433;-76
2022/04/22 13:18:59;;;;;;;6.63;4.35;;;;;;;;;;5092736;28;20023;-75
2022/04/22 13:21:26;;;;;;;;;;;;;;;;;;5092774;28;20388;-75
2022/04/22 13:23:53;;;;;;;10.82;3.95;;;;;;;;;;5090970;28;19904;-74
2022/04/22 13:26:21;;;;;;;7.63;3.50;;;;;;;;;;5092250;28;20514;-75
2022/04/22 13:28:49;;;;;;;8.15;3.55;;;;;;;;;;5091032;28;20056;-75
2022/04/22 13:31:17;;;;;;;5.30;3.60;;;;;;;;;;5090898;28;20089;-75
2022/04/22 13:33:44;;;;;;;5.82;3.13;;;;;;;;;;5092487;28;20439;-74
2022/04/22 13:36:12;;;;;;;6.20;3.30;;;;;;;;;;5090893;28;20492;-75
2022/04/22 13:38:39;;;;;;;5.00;3.08;;;;;;;;;;5092277;28;20552;-75
2022/04/22 13:41:07;;;;;;;7.22;2.90;;;;;;;;;;5090819;28;20108;-75
2022/04/22 13:43:35;;;;;;;8.05;3.17;;;;;;;;;;5090850;28;20049;-75
2022/04/22 13:54:20;;;;;;;4.68;1.85;;;;;;;;;;5092380;28;20093;-76
2022/04/22 13:56:48;;;;;;;5.82;2.50;;;;;;;;;;5090690;28;20020;-77
2022/04/22 13:59:15;;;;;;;6.13;2.55;;;;;;;;;;5090718;28;20056;-75
2022/04/22 14:01:42;;;;;;;5.53;2.72;;;;;;;;;;5092028;28;20439;-76
2022/04/22 14:04:10;;;;;;;4.97;1.92;;;;;;;;;;5092100;28;20062;-75
2022/04/22 14:06:38;;;;;;;6.78;1.92;;;;;;;;;;5095953;28;20082;-78
2022/04/22 14:09:05;;;;;;;6.53;2.10;;;;;;;;;;5095724;28;20438;-75
2022/04/22 14:11:32;;;;;;;6.13;2.47;;;;;;;;;;5094210;28;20391;-75
2022/04/22 14:13:59;;;;;;;4.40;2.25;;;;;;;;;;5095669;28;20039;-77
2022/04/22 14:16:26;;;;;;;6.85;2.83;;;;;;;;;;5095599;28;20022;-76
2022/04/22 14:18:54;;;;;;;6.70;3.38;;;;;;;;;;5095596;28;20024;-76
2022/04/22 14:21:21;;;;;;;5.25;3.35;;;;;;;;;;5094236;28;20028;-76
2022/04/22 14:23:48;;;;;;;4.53;3.40;;;;;;;;;;5094098;28;20030;-77
2022/04/22 14:26:15;;;;;;;6.47;4.28;;;;;;;;;;5095448;28;20036;-76
2022/04/22 14:28:42;;;;;;;6.32;4.03;;;;;;;;;;5094047;28;20024;-75
2022/04/22 14:31:11;;;;;;;6.32;3.58;;;;;;;;;;5095285;28;20587;-75
2022/04/22 14:33:39;;;;;;;5.78;3.47;;;;;;;;;;5095238;28;20532;-74
2022/04/22 14:36:06;;;;;;;6.97;3.63;;;;;;;;;;5093948;28;20098;-75
2022/04/22 14:38:33;;;;;;;5.28;3.78;;;;;;;;;;5095141;28;20020;-74
2022/04/22 14:41:00;;;;;;;5.57;4.00;;;;;;;;;;5095143;28;20430;-75
2022/04/22 14:43:27;;;;;;;7.15;4.60;;;;;;;;;;5093808;28;20035;-75
2022/04/22 14:45:55;;;;;;;7.78;5.03;;;;;;;;;;5093800;28;20028;-76
2022/04/22 14:48:22;;;;;;;5.72;4.55;;;;;;;;;;5094791;28;20127;-75
2022/04/22 14:50:49;;;;;;;8.85;5.28;;;;;;;;;;5094951;28;20499;-75
2022/04/22 14:53:16;;;;;;;6.60;5.32;;;;;;;;;;5093633;28;20048;-76
2022/04/22 14:55:44;;;;;;;6.95;4.75;;;;;;;;;;5094928;28;20035;-75
2022/04/22 14:58:11;;;;;;;8.88;4.97;;;;;;;;;;5093519;28;20074;-76
2022/04/22 15:00:38;;;;;;;8.48;4.28;;;;;;;;;;5094758;28;20027;-75
2022/04/22 15:03:05;;;;;;;7.75;4.90;;;;;;;;;;5093450;28;20020;-75
2022/04/22 15:05:32;;;;;;;6.97;4.80;;;;;;;;;;5093314;28;20027;-76
2022/04/22 15:08:00;;;;;;;4.95;4.45;;;;;;;;;;5094569;28;20048;-75
2022/04/22 15:10:28;;;;;;;8.05;5.20;;;;;;;;;;5093129;28;20035;-75
2022/04/22 15:12:55;;;;;;;6.80;6.05;;;;;;;;;;5093248;28;20017;-75
2022/04/22 15:15:22;;;;;;;8.63;6.70;;;;;;;;;;5092640;28;20024;-77
2022/04/22 15:26:06;;;;;;;9.75;7.45;;;;;;;;;;5094383;28;20074;-75
2022/04/22 15:28:34;;;;;;;10.65;8.05;;;;;;;;;;5092955;28;20400;-75
2022/04/22 15:31:22;;;;;;;9.48;7.28;;;;;;;;;;5092755;28;20036;-75
2022/04/22 15:33:48;;;;;;;8.23;7.43;;;;;;;;;;5093659;28;20513;-75
2022/04/22 15:36:16;;;;;;;9.00;8.00;;;;;;;;;;5094095;28;20024;-75
2022/04/22 15:38:44;;;;;;;9.88;7.78;;;;;;;;;;5092655;28;20047;-75
2022/04/22 15:41:13;;;;;;;11.35;7.88;;;;;;;;;;5094060;28;20028;-75
2022/04/22 15:43:41;;;;;;;9.73;7.75;;;;;;;;;;5092714;28;20028;-75
2022/04/22 15:46:08;;;;;;;8.80;7.68;;;;;;;;;;5093938;28;20024;-75
2022/04/22 15:48:35;;;;;;;8.48;7.60;;;;;;;;;;5093676;28;20126;-75
2022/04/22 15:51:04;;;;;;;8.65;7.75;;;;;;;;;;5093696;28;20032;-75
2022/04/22 15:53:32;;;;;;;10.73;8.27;;;;;;;;;;5092485;28;20024;-74
2022/04/22 15:55:59;;;;;;;9.07;8.27;;;;;;;;;;5093779;28;20040;-75
2022/04/22 15:58:30;;;;;;;8.25;7.45;;;;;;;;;;5092294;28;20503;-75
2022/04/22 16:00:57;;;;;;;9.27;8.10;;;;;;;;;;5092319;28;20063;-75
2022/04/22 16:03:25;;;;;;;8.77;7.70;;;;;;;;;;5092272;28;20056;-76
2022/04/22 16:05:53;;;;;;;8.95;8.15;;;;;;;;;;5092178;28;20030;-76
2022/04/22 16:08:23;;;;;;;10.02;8.15;;;;;;;;;;5092199;28;20028;-76
2022/04/22 16:10:51;;;;;;;8.90;8.00;;;;;;;;;;5091969;28;20062;-75
2022/04/22 16:16:17;;;;;;;11.32;8.18;;;;;;;;;;5069948;28;20120;-75
2022/04/22 16:18:44;;;;;;;10.60;8.60;;;;;;;;;;5092048;28;20388;-76